Porterville, Utah
Current Conditions -  °F | °C
As of 9:58 AM on Friday 28 Nov 2014 (Local Time) from KHIF Reporting Station
Clear Clear  
Wind Chill: 52°   Ceiling: Unl
Heat Index: 52°   Visibility: 10mi
Dew Point: 20°   Wind: 8mph
Humidity: 28%   Direction: 160°SSE
Pressure: 30.02"   Gusts: NA
Location:  41.0884°N, 111.576°W
Report Text: KHIF 281658Z AUTO 16007KT 10SM CLR 11/M07 A3002 RMK AO2 SLP145 T01111069
Loading
Personal Weather Stations






























Interactive Weather Map New forecast layout! Learn more

10-Day Weather Forecast

Advertisements
Track Severe Weather on mobile